createdAt,value
2015-10-01T00:00:06.911Z,55
2015-10-01T00:00:25.414Z,58
2015-10-01T00:00:43.914Z,57
2015-10-01T00:01:02.414Z,58
2015-10-01T00:01:20.931Z,56
2015-10-01T00:01:39.228Z,53
2015-10-01T00:01:57.634Z,58
2015-10-01T00:02:16.092Z,57
2015-10-01T00:02:34.670Z,56
2015-10-01T00:02:53.263Z,58
2015-10-01T00:03:11.685Z,58
2015-10-01T00:03:30.203Z,58
2015-10-01T00:03:48.812Z,58
2015-10-01T00:04:07.203Z,58
2015-10-01T00:04:25.675Z,58
2015-10-01T00:04:44.034Z,58
2015-10-01T00:05:02.659Z,58
2015-10-01T00:05:21.068Z,58
2015-10-01T00:05:39.615Z,58
2015-10-01T00:05:58.068Z,58
2015-10-01T00:06:16.493Z,58
2015-10-01T00:06:34.853Z,58
2015-10-01T00:06:53.243Z,58
2015-10-01T00:07:11.587Z,55
2015-10-01T00:07:30.042Z,56
2015-10-01T00:07:48.401Z,56
2015-10-01T00:08:06.933Z,56
2015-10-01T00:08:25.232Z,57
2015-10-01T00:08:43.857Z,57
2015-10-01T00:09:02.278Z,58
2015-10-01T00:09:20.939Z,58
2015-10-01T00:09:39.501Z,58
2015-10-01T00:09:57.954Z,58
2015-10-01T00:10:16.407Z,58
2015-10-01T00:10:34.847Z,58
2015-10-01T00:10:53.284Z,58
2015-10-01T00:11:11.769Z,58
2015-10-01T00:11:30.209Z,58
2015-10-01T00:11:48.459Z,58
2015-10-01T00:12:06.959Z,59
2015-10-01T00:12:25.447Z,58
2015-10-01T00:12:43.869Z,59
2015-10-01T00:13:02.525Z,58
2015-10-01T00:13:20.947Z,58
2015-10-01T00:13:39.450Z,58
2015-10-01T00:13:57.825Z,58
2015-10-01T00:14:16.450Z,59
2015-10-01T00:14:34.937Z,58
2015-10-01T00:14:53.406Z,58
2015-10-01T00:15:11.812Z,58
2015-10-01T00:15:30.220Z,58
2015-10-01T00:15:48.673Z,58
2015-10-01T00:16:07.111Z,58
2015-10-01T00:16:25.564Z,58
2015-10-01T00:16:44.176Z,58
2015-10-01T00:17:02.536Z,59
2015-10-01T00:17:20.942Z,56
2015-10-01T00:17:39.304Z,58
2015-10-01T00:17:57.867Z,58
2015-10-01T00:18:16.398Z,49
2015-10-01T00:18:34.853Z,52
2015-10-01T00:18:53.322Z,54
2015-10-01T00:19:11.853Z,54
2015-10-01T00:19:30.215Z,56
2015-10-01T00:19:48.871Z,54
2015-10-01T00:20:07.230Z,54
2015-10-01T00:20:25.918Z,53
2015-10-01T00:20:44.655Z,56
2015-10-01T00:21:03.155Z,56
2015-10-01T00:21:21.765Z,56
2015-10-01T00:21:40.221Z,54
2015-10-01T00:21:58.705Z,54
2015-10-01T00:22:17.268Z,58
2015-10-01T00:22:35.958Z,57
2015-10-01T00:22:54.505Z,57
2015-10-01T00:23:13.114Z,53
2015-10-01T00:23:32.005Z,54
2015-10-01T00:23:50.649Z,57
2015-10-01T00:24:09.164Z,57
2015-10-01T00:24:27.805Z,57
2015-10-01T00:24:46.369Z,56
2015-10-01T00:25:04.994Z,57
2015-10-01T00:25:23.619Z,54
2015-10-01T00:25:41.997Z,53
2015-10-01T00:26:00.372Z,54
2015-10-01T00:26:18.732Z,53
2015-10-01T00:26:37.125Z,54
2015-10-01T00:26:55.516Z,52
2015-10-01T00:27:14.250Z,52
2015-10-01T00:27:32.672Z,54
2015-10-01T00:27:51.159Z,52
2015-10-01T00:28:09.596Z,53
2015-10-01T00:28:28.174Z,48
2015-10-01T00:28:46.741Z,49
2015-10-01T00:29:05.147Z,51
2015-10-01T00:29:23.506Z,50
2015-10-01T00:29:41.930Z,51
2015-10-01T00:30:00.336Z,51
2015-10-01T00:30:18.930Z,53
2015-10-01T00:30:37.493Z,53
2015-10-01T00:30:56.277Z,53
2015-10-01T00:31:14.683Z,54
2015-10-01T00:31:33.214Z,54
2015-10-01T00:31:51.764Z,53
2015-10-01T00:32:10.217Z,52
2015-10-01T00:32:28.764Z,54
2015-10-01T00:32:47.157Z,53
2015-10-01T00:33:05.423Z,52
2015-10-01T00:33:23.829Z,54
2015-10-01T00:33:42.219Z,53
2015-10-01T00:34:00.645Z,52
2015-10-01T00:34:19.114Z,53
2015-10-01T00:34:37.630Z,52
2015-10-01T00:34:55.991Z,52
2015-10-01T00:35:14.413Z,52
2015-10-01T00:35:32.835Z,52
2015-10-01T00:35:51.260Z,53
2015-10-01T00:36:09.822Z,52
2015-10-01T00:36:28.447Z,52
2015-10-01T00:36:46.807Z,54
2015-10-01T00:37:05.216Z,53
2015-10-01T00:37:23.575Z,55
2015-10-01T00:37:42.247Z,54
2015-10-01T00:38:00.813Z,51
2015-10-01T00:38:19.219Z,53
2015-10-01T00:38:37.766Z,54
2015-10-01T00:38:56.221Z,53
2015-10-01T00:39:14.908Z,54
2015-10-01T00:39:33.377Z,51
2015-10-01T00:39:52.333Z,53
2015-10-01T00:40:10.880Z,53
2015-10-01T00:40:29.286Z,50
2015-10-01T00:40:47.864Z,49
2015-10-01T00:41:06.289Z,47
2015-10-01T00:41:24.649Z,51
2015-10-01T00:41:43.227Z,51
2015-10-01T00:42:01.683Z,51
2015-10-01T00:42:20.245Z,54
2015-10-01T00:42:38.120Z,54
2015-10-01T00:42:56.481Z,54
2015-10-01T00:43:15.246Z,57
2015-10-01T00:43:33.606Z,58
2015-10-01T00:43:52.106Z,48
2015-10-01T00:44:10.468Z,50
2015-10-01T00:44:29.203Z,52
2015-10-01T00:44:47.421Z,51
2015-10-01T00:45:05.893Z,51
2015-10-01T00:45:24.315Z,53
2015-10-01T00:45:42.752Z,52
2015-10-01T00:46:01.255Z,50
2015-10-01T00:46:19.927Z,50
2015-10-01T00:46:38.334Z,52
2015-10-01T00:46:56.771Z,52
2015-10-01T00:47:15.180Z,54
2015-10-01T00:47:33.665Z,48
2015-10-01T00:47:52.212Z,50
2015-10-01T00:48:10.761Z,47
2015-10-01T00:48:29.183Z,59
2015-10-01T00:48:47.543Z,47
2015-10-01T00:49:05.983Z,49
2015-10-01T00:49:24.733Z,47
2015-10-01T00:49:43.108Z,47
2015-10-01T00:50:01.702Z,56
2015-10-01T00:50:20.066Z,52
2015-10-01T00:50:38.457Z,58
2015-10-01T00:50:56.941Z,49
2015-10-01T00:51:15.319Z,59
2015-10-01T00:51:33.679Z,51
2015-10-01T00:51:52.054Z,58
2015-10-01T00:52:10.744Z,57
2015-10-01T00:52:29.119Z,55
2015-10-01T00:52:47.557Z,46
2015-10-01T00:53:05.963Z,47
2015-10-01T00:53:24.357Z,58
2015-10-01T00:53:43.013Z,50
2015-10-01T00:54:01.497Z,51
2015-10-01T00:54:19.859Z,49
2015-10-01T00:54:38.327Z,58
2015-10-01T00:54:56.718Z,56
2015-10-01T00:55:15.112Z,54
2015-10-01T00:55:33.768Z,56
2015-10-01T00:55:52.252Z,57
2015-10-01T00:56:10.612Z,56
2015-10-01T00:56:28.974Z,58
2015-10-01T00:56:47.443Z,58
2015-10-01T00:57:06.005Z,55
2015-10-01T00:57:24.398Z,53
2015-10-01T00:57:42.773Z,54
2015-10-01T00:58:01.179Z,55
2015-10-01T00:58:19.760Z,53
2015-10-01T00:58:38.432Z,57
2015-10-01T00:58:56.791Z,56
2015-10-01T00:59:15.260Z,57
2015-10-01T00:59:33.918Z,57
2015-10-01T00:59:52.497Z,56
2015-10-01T01:00:10.856Z,55
2015-10-01T01:00:29.312Z,58
2015-10-01T01:00:47.765Z,57
2015-10-01T01:01:06.218Z,57
2015-10-01T01:01:24.721Z,58
2015-10-01T01:01:43.081Z,58
2015-10-01T01:02:01.581Z,57
2015-10-01T01:02:20.021Z,53
2015-10-01T01:02:38.381Z,50
2015-10-01T01:02:56.787Z,57
2015-10-01T01:03:15.177Z,58
2015-10-01T01:03:33.571Z,58
2015-10-01T01:03:52.071Z,58
2015-10-01T01:04:10.415Z,58
2015-10-01T01:04:28.793Z,58
2015-10-01T01:04:47.199Z,58
2015-10-01T01:05:05.699Z,59
2015-10-01T01:05:24.060Z,59
2015-10-01T01:05:42.467Z,59
2015-10-01T01:06:00.873Z,59
2015-10-01T01:06:19.264Z,59
2015-10-01T01:06:37.657Z,58
2015-10-01T01:06:56.298Z,59
2015-10-01T01:07:14.907Z,58
2015-10-01T01:07:33.301Z,59
2015-10-01T01:07:51.660Z,59
2015-10-01T01:08:10.223Z,55
2015-10-01T01:08:28.631Z,59
2015-10-01T01:08:47.100Z,56
2015-10-01T01:09:05.475Z,54
2015-10-01T01:09:23.881Z,51
2015-10-01T01:09:41.587Z,49
2015-10-01T01:09:59.946Z,51
2015-10-01T01:10:18.306Z,49
2015-10-01T01:10:36.731Z,48
2015-10-01T01:10:55.153Z,51
2015-10-01T01:11:13.590Z,55
2015-10-01T01:11:31.999Z,52
2015-10-01T01:11:50.468Z,53
2015-10-01T01:12:08.874Z,57
2015-10-01T01:12:27.234Z,58
2015-10-01T01:12:45.736Z,54
2015-10-01T01:13:04.314Z,58
2015-10-01T01:13:22.720Z,57
2015-10-01T01:13:41.161Z,58
2015-10-01T01:13:59.645Z,59
2015-10-01T01:14:18.004Z,58
2015-10-01T01:14:36.413Z,56
2015-10-01T01:14:54.975Z,54
2015-10-01T01:15:13.459Z,58
2015-10-01T01:15:31.834Z,58
2015-10-01T01:15:50.275Z,54
2015-10-01T01:16:08.634Z,58
2015-10-01T01:16:27.166Z,58
2015-10-01T01:16:45.576Z,54
2015-10-01T01:17:03.966Z,59
2015-10-01T01:17:22.529Z,52
2015-10-01T01:17:41.093Z,53
2015-10-01T01:17:59.468Z,53
2015-10-01T01:18:17.890Z,54
2015-10-01T01:18:36.297Z,56
2015-10-01T01:18:54.690Z,56
2015-10-01T01:19:13.065Z,58
2015-10-01T01:19:31.628Z,58
2015-10-01T01:19:50.084Z,58
2015-10-01T01:20:08.490Z,57
2015-10-01T01:20:27.115Z,58
2015-10-01T01:20:45.868Z,57
2015-10-01T01:21:04.259Z,59
2015-10-01T01:21:22.649Z,58
2015-10-01T01:21:41.024Z,56
2015-10-01T01:21:59.604Z,56
2015-10-01T01:22:18.026Z,58
2015-10-01T01:22:36.636Z,59
2015-10-01T01:22:55.028Z,59
2015-10-01T01:23:13.450Z,59
2015-10-01T01:23:31.872Z,59
2015-10-01T01:23:50.547Z,59
2015-10-01T01:24:09.266Z,59
2015-10-01T01:24:27.531Z,59
2015-10-01T01:24:45.984Z,59
2015-10-01T01:25:04.644Z,58
2015-10-01T01:25:23.003Z,56
2015-10-01T01:25:41.566Z,57
2015-10-01T01:26:00.147Z,54
2015-10-01T01:26:18.709Z,59
2015-10-01T01:26:37.100Z,59
2015-10-01T01:26:55.618Z,56
2015-10-01T01:27:13.962Z,56
2015-10-01T01:27:32.322Z,56
2015-10-01T01:27:50.933Z,57
2015-10-01T01:28:09.292Z,59
2015-10-01T01:28:27.324Z,59
2015-10-01T01:28:46.074Z,59
2015-10-01T01:29:04.842Z,59
2015-10-01T01:29:23.358Z,59
2015-10-01T01:29:42.123Z,59
2015-10-01T01:30:00.720Z,59
2015-10-01T01:30:19.236Z,59
2015-10-01T01:30:37.876Z,59
2015-10-01T01:30:56.286Z,58
2015-10-01T01:31:14.645Z,56
2015-10-01T01:31:33.004Z,59
2015-10-01T01:31:51.536Z,59
2015-10-01T01:32:10.226Z,59
2015-10-01T01:32:28.742Z,59
2015-10-01T01:32:47.289Z,59
2015-10-01T01:33:05.978Z,59
2015-10-01T01:33:24.369Z,58
2015-10-01T01:33:43.103Z,59
2015-10-01T01:34:01.966Z,58
2015-10-01T01:34:20.434Z,59
2015-10-01T01:34:38.809Z,59
2015-10-01T01:34:57.169Z,59
2015-10-01T01:35:15.656Z,59
2015-10-01T01:35:34.156Z,59
2015-10-01T01:35:52.656Z,59
2015-10-01T01:36:11.236Z,59
2015-10-01T01:36:29.799Z,59
2015-10-01T01:36:48.205Z,59
2015-10-01T01:37:06.583Z,59
2015-10-01T01:37:25.224Z,59
2015-10-01T01:37:43.802Z,59
2015-10-01T01:38:02.177Z,59
2015-10-01T01:38:21.039Z,58
2015-10-01T01:38:39.711Z,59
2015-10-01T01:38:58.070Z,59
2015-10-01T01:39:16.511Z,59
2015-10-01T01:39:35.105Z,59
2015-10-01T01:39:53.698Z,59
2015-10-01T01:40:12.278Z,59
2015-10-01T01:40:30.810Z,59
2015-10-01T01:40:49.216Z,59
2015-10-01T01:41:07.950Z,59
2015-10-01T01:41:26.531Z,59
2015-10-01T01:41:44.922Z,59
2015-10-01T01:42:03.328Z,59
2015-10-01T01:42:21.738Z,59
2015-10-01T01:42:40.097Z,59
2015-10-01T01:42:58.534Z,59
2015-10-01T01:43:16.991Z,59
2015-10-01T01:43:35.584Z,59
2015-10-01T01:43:53.975Z,59
2015-10-01T01:44:12.397Z,59
2015-10-01T01:44:31.008Z,59
2015-10-01T01:44:49.430Z,59
2015-10-01T01:45:08.039Z,59
2015-10-01T01:45:26.449Z,59
2015-10-01T01:45:44.792Z,59
2015-10-01T01:46:03.152Z,59
2015-10-01T01:46:21.764Z,59
2015-10-01T01:46:40.327Z,59
2015-10-01T01:46:58.967Z,59
2015-10-01T01:47:17.467Z,59
2015-10-01T01:47:36.173Z,59
2015-10-01T01:47:54.783Z,58
2015-10-01T01:48:13.345Z,59
2015-10-01T01:48:32.114Z,59
2015-10-01T01:48:50.817Z,59
2015-10-01T01:49:09.270Z,57
2015-10-01T01:49:27.819Z,59
2015-10-01T01:49:46.460Z,59
2015-10-01T01:50:04.835Z,59
2015-10-01T01:50:23.291Z,58
2015-10-01T01:50:41.697Z,59
2015-10-01T01:51:00.213Z,59
2015-10-01T01:51:18.650Z,59
2015-10-01T01:51:37.044Z,59
2015-10-01T01:51:55.575Z,59
2015-10-01T01:52:14.169Z,59
2015-10-01T01:52:32.578Z,59
2015-10-01T01:52:51.234Z,59
2015-10-01T01:53:10.000Z,59
2015-10-01T01:53:28.643Z,59
2015-10-01T01:53:47.080Z,59
2015-10-01T01:54:05.939Z,59
2015-10-01T01:54:24.349Z,59
2015-10-01T01:54:42.755Z,59
2015-10-01T01:55:01.349Z,59
2015-10-01T01:55:19.755Z,59
2015-10-01T01:55:38.024Z,59
2015-10-01T01:55:56.586Z,59
2015-10-01T01:56:15.117Z,59
2015-10-01T01:56:33.713Z,59
2015-10-01T01:56:52.088Z,59
2015-10-01T01:57:10.666Z,59
2015-10-01T01:57:29.232Z,58
2015-10-01T01:57:47.841Z,58
2015-10-01T01:58:06.216Z,59
2015-10-01T01:58:24.591Z,58
2015-10-01T01:58:43.016Z,59
2015-10-01T01:59:01.516Z,59
2015-10-01T01:59:19.953Z,59
2015-10-01T01:59:38.550Z,59
2015-10-01T01:59:56.894Z,59
2015-10-01T02:00:15.347Z,59
2015-10-01T02:00:33.833Z,58
2015-10-01T02:00:52.208Z,59
2015-10-01T02:01:10.568Z,59
2015-10-01T02:01:28.961Z,59
2015-10-01T02:01:47.399Z,59
2015-10-01T02:02:06.133Z,59
2015-10-01T02:02:24.508Z,59
2015-10-01T02:02:43.027Z,59
2015-10-01T02:03:01.386Z,59
2015-10-01T02:03:19.793Z,59
2015-10-01T02:03:38.592Z,59
2015-10-01T02:03:57.155Z,58
2015-10-01T02:04:15.514Z,59
2015-10-01T02:04:34.016Z,59
2015-10-01T02:04:52.907Z,58
2015-10-01T02:05:11.360Z,59
2015-10-01T02:05:29.798Z,59
2015-10-01T02:05:48.221Z,58
2015-10-01T02:06:06.612Z,59
2015-10-01T02:06:25.206Z,58
2015-10-01T02:06:43.897Z,59
2015-10-01T02:07:02.335Z,59
2015-10-01T02:07:20.741Z,59
2015-10-01T02:07:39.338Z,59
2015-10-01T02:07:57.932Z,59
2015-10-01T02:08:16.400Z,59
2015-10-01T02:08:34.791Z,59
2015-10-01T02:08:53.152Z,59
2015-10-01T02:09:11.512Z,59
2015-10-01T02:09:29.980Z,57
2015-10-01T02:09:48.624Z,56
2015-10-01T02:10:07.124Z,55
2015-10-01T02:10:25.608Z,57
2015-10-01T02:10:44.315Z,56
2015-10-01T02:11:02.690Z,56
2015-10-01T02:11:21.190Z,58
2015-10-01T02:11:39.582Z,57
2015-10-01T02:11:57.957Z,57
2015-10-01T02:12:16.457Z,55
2015-10-01T02:12:35.082Z,55
2015-10-01T02:12:53.554Z,55
2015-10-01T02:13:12.241Z,55
2015-10-01T02:13:30.913Z,57
2015-10-01T02:13:49.323Z,56
2015-10-01T02:14:07.916Z,56
2015-10-01T02:14:26.291Z,56
2015-10-01T02:14:44.871Z,56
2015-10-01T02:15:03.418Z,57
2015-10-01T02:15:22.278Z,56
2015-10-01T02:15:40.778Z,56
2015-10-01T02:15:59.171Z,56
2015-10-01T02:16:17.640Z,56
2015-10-01T02:16:36.078Z,56
2015-10-01T02:16:54.581Z,56
2015-10-01T02:17:13.081Z,57
2015-10-01T02:17:31.721Z,57
2015-10-01T02:17:50.318Z,58
2015-10-01T02:18:08.912Z,57
2015-10-01T02:18:27.412Z,56
2015-10-01T02:18:45.787Z,55
2015-10-01T02:19:04.383Z,54
2015-10-01T02:19:22.883Z,54
2015-10-01T02:19:41.305Z,54
2015-10-01T02:19:59.746Z,54
2015-10-01T02:20:18.355Z,54
2015-10-01T02:20:36.715Z,56
2015-10-01T02:20:55.326Z,55
2015-10-01T02:21:13.998Z,51
2015-10-01T02:21:32.342Z,55
2015-10-01T02:21:51.154Z,56
2015-10-01T02:22:09.798Z,54
2015-10-01T02:22:28.173Z,54
2015-10-01T02:22:46.579Z,54
2015-10-01T02:23:05.050Z,54
2015-10-01T02:23:23.409Z,54
2015-10-01T02:23:41.956Z,55
2015-10-01T02:24:00.678Z,55
2015-10-01T02:24:19.131Z,55
2015-10-01T02:24:37.490Z,55
2015-10-01T02:24:55.912Z,57
2015-10-01T02:25:14.399Z,57
2015-10-01T02:25:32.821Z,56
2015-10-01T02:25:51.524Z,55
2015-10-01T02:26:09.887Z,55
2015-10-01T02:26:28.465Z,54
2015-10-01T02:26:47.121Z,54
2015-10-01T02:27:05.468Z,56
2015-10-01T02:27:24.249Z,54
2015-10-01T02:27:42.827Z,55
2015-10-01T02:28:01.204Z,53
2015-10-01T02:28:19.751Z,55
2015-10-01T02:28:38.126Z,56
2015-10-01T02:28:56.704Z,56
2015-10-01T02:29:15.175Z,55
2015-10-01T02:29:33.534Z,55
2015-10-01T02:29:52.238Z,55
2015-10-01T02:30:10.663Z,56
2015-10-01T02:30:29.195Z,56
2015-10-01T02:30:47.617Z,56
2015-10-01T02:31:06.494Z,56
2015-10-01T02:31:24.915Z,57
2015-10-01T02:31:43.525Z,56
2015-10-01T02:32:01.884Z,57
2015-10-01T02:32:20.340Z,58
2015-10-01T02:32:38.887Z,56
2015-10-01T02:32:57.387Z,55
2015-10-01T02:33:16.031Z,56
2015-10-01T02:33:34.468Z,56
2015-10-01T02:33:52.859Z,55
2015-10-01T02:34:11.487Z,56
2015-10-01T02:34:30.081Z,56
2015-10-01T02:34:48.487Z,55
2015-10-01T02:35:06.878Z,55
2015-10-01T02:35:25.255Z,55
2015-10-01T02:35:43.661Z,55
2015-10-01T02:36:02.083Z,56
2015-10-01T02:36:20.601Z,56
2015-10-01T02:36:39.133Z,57
2015-10-01T02:36:58.008Z,55
2015-10-01T02:37:16.448Z,56
2015-10-01T02:37:35.026Z,56
2015-10-01T02:37:53.667Z,58
2015-10-01T02:38:12.245Z,56
2015-10-01T02:38:30.809Z,57
2015-10-01T02:38:49.200Z,56
2015-10-01T02:39:07.653Z,55
2015-10-01T02:39:26.142Z,55
2015-10-01T02:39:44.829Z,55
2015-10-01T02:40:03.329Z,55
2015-10-01T02:40:21.940Z,56
2015-10-01T02:40:40.425Z,56
2015-10-01T02:40:58.769Z,56
2015-10-01T02:41:17.162Z,56
2015-10-01T02:41:35.818Z,56
2015-10-01T02:41:54.397Z,55
2015-10-01T02:42:12.818Z,54
2015-10-01T02:42:31.352Z,53
2015-10-01T02:42:49.852Z,55
2015-10-01T02:43:08.227Z,54
2015-10-01T02:43:26.667Z,53
2015-10-01T02:43:45.027Z,53
2015-10-01T02:44:03.620Z,54
2015-10-01T02:44:21.998Z,54
2015-10-01T02:44:40.686Z,54
2015-10-01T02:44:59.342Z,55
2015-10-01T02:45:17.889Z,55
2015-10-01T02:45:36.454Z,56
2015-10-01T02:45:54.845Z,55
2015-10-01T02:46:13.220Z,54
2015-10-01T02:46:31.581Z,56
2015-10-01T02:46:50.035Z,56
2015-10-01T02:47:08.691Z,56
2015-10-01T02:47:27.397Z,55
2015-10-01T02:47:45.772Z,54
2015-10-01T02:48:04.288Z,56
2015-10-01T02:48:22.947Z,56
2015-10-01T02:48:41.306Z,56
2015-10-01T02:49:00.072Z,57
2015-10-01T02:49:18.572Z,57
2015-10-01T02:49:37.169Z,57
2015-10-01T02:49:55.684Z,59
2015-10-01T02:50:14.075Z,56
2015-10-01T02:50:32.608Z,57
2015-10-01T02:50:51.217Z,58
2015-10-01T02:51:09.983Z,56
2015-10-01T02:51:28.455Z,56
2015-10-01T02:51:47.158Z,55
2015-10-01T02:52:05.549Z,56
2015-10-01T02:52:23.958Z,55
2015-10-01T02:52:42.677Z,56
2015-10-01T02:53:01.161Z,56
2015-10-01T02:53:19.692Z,58
2015-10-01T02:53:38.163Z,58
2015-10-01T02:53:56.632Z,57
2015-10-01T02:54:15.194Z,57
2015-10-01T02:54:33.869Z,57
2015-10-01T02:54:52.338Z,57
2015-10-01T02:55:11.150Z,57
2015-10-01T02:55:29.575Z,57
2015-10-01T02:55:48.138Z,58
2015-10-01T02:56:06.575Z,55
2015-10-01T02:56:24.935Z,56
2015-10-01T02:56:43.343Z,55
2015-10-01T02:57:02.030Z,56
2015-10-01T02:57:20.468Z,55
2015-10-01T02:57:38.956Z,56
2015-10-01T02:57:57.456Z,56
2015-10-01T02:58:15.816Z,56
2015-10-01T02:58:34.349Z,57
2015-10-01T02:58:52.818Z,56
2015-10-01T02:59:11.271Z,57
2015-10-01T02:59:29.711Z,56
2015-10-01T02:59:48.399Z,57
2015-10-01T03:00:06.961Z,59
2015-10-01T03:00:25.321Z,57
2015-10-01T03:00:43.683Z,53
2015-10-01T03:01:02.370Z,57
2015-10-01T03:01:20.745Z,58
2015-10-01T03:01:39.217Z,58
2015-10-01T03:01:57.608Z,59
2015-10-01T03:02:15.998Z,56
2015-10-01T03:02:34.454Z,56
2015-10-01T03:02:53.344Z,57
2015-10-01T03:03:11.719Z,57
2015-10-01T03:03:30.063Z,57
2015-10-01T03:03:48.738Z,59
2015-10-01T03:04:07.082Z,56
2015-10-01T03:04:25.644Z,57
2015-10-01T03:04:44.037Z,58
2015-10-01T03:05:02.693Z,58
2015-10-01T03:05:21.193Z,58
2015-10-01T03:05:39.618Z,57
2015-10-01T03:05:58.258Z,57
2015-10-01T03:06:17.102Z,57
2015-10-01T03:06:35.587Z,56
2015-10-01T03:06:54.277Z,57
2015-10-01T03:07:12.824Z,57
2015-10-01T03:07:31.183Z,57
2015-10-01T03:07:49.546Z,59
2015-10-01T03:08:08.139Z,57
2015-10-01T03:08:26.514Z,57
2015-10-01T03:08:44.939Z,57
2015-10-01T03:09:03.533Z,57
2015-10-01T03:09:22.080Z,58
2015-10-01T03:09:40.486Z,57
2015-10-01T03:09:58.924Z,56
2015-10-01T03:10:17.377Z,56
2015-10-01T03:10:36.096Z,56
2015-10-01T03:10:54.462Z,57
2015-10-01T03:11:13.102Z,56
2015-10-01T03:11:31.493Z,57
2015-10-01T03:11:50.280Z,55
2015-10-01T03:12:08.795Z,57
2015-10-01T03:12:27.280Z,57
2015-10-01T03:12:45.909Z,56
2015-10-01T03:13:04.300Z,55
2015-10-01T03:13:22.831Z,55
2015-10-01T03:13:41.191Z,56
2015-10-01T03:13:59.556Z,56
2015-10-01T03:14:18.399Z,56
2015-10-01T03:14:37.212Z,57
2015-10-01T03:14:55.672Z,56
2015-10-01T03:15:14.156Z,56
2015-10-01T03:15:32.578Z,56
2015-10-01T03:15:50.999Z,56
2015-10-01T03:16:09.499Z,56
2015-10-01T03:16:27.921Z,57
2015-10-01T03:16:46.497Z,57
2015-10-01T03:17:05.059Z,57
2015-10-01T03:17:23.637Z,58
2015-10-01T03:17:42.200Z,58
2015-10-01T03:18:00.698Z,57
2015-10-01T03:18:19.417Z,58
2015-10-01T03:18:37.917Z,56
2015-10-01T03:18:55.681Z,55
2015-10-01T03:19:14.166Z,57
2015-10-01T03:19:33.291Z,57
2015-10-01T03:19:51.711Z,57
2015-10-01T03:20:10.071Z,58
2015-10-01T03:20:28.899Z,56
2015-10-01T03:20:47.383Z,57
2015-10-01T03:21:06.245Z,57
2015-10-01T03:21:24.932Z,56
2015-10-01T03:21:43.463Z,56
2015-10-01T03:22:02.089Z,55
2015-10-01T03:22:20.933Z,56
2015-10-01T03:22:39.730Z,56
2015-10-01T03:22:58.215Z,57
2015-10-01T03:23:16.747Z,56
2015-10-01T03:23:35.715Z,57
2015-10-01T03:23:54.248Z,57
2015-10-01T03:24:12.826Z,57
2015-10-01T03:24:31.654Z,58
2015-10-01T03:24:50.170Z,58
2015-10-01T03:25:08.577Z,59
2015-10-01T03:25:27.124Z,58
2015-10-01T03:25:45.749Z,57
2015-10-01T03:26:04.486Z,57
2015-10-01T03:26:22.877Z,57
2015-10-01T03:26:41.627Z,57
2015-10-01T03:27:00.238Z,58
2015-10-01T03:27:18.894Z,59
2015-10-01T03:27:37.332Z,59
2015-10-01T03:27:55.863Z,59
2015-10-01T03:28:14.490Z,58
2015-10-01T03:28:33.240Z,59
2015-10-01T03:28:51.959Z,57
2015-10-01T03:29:10.350Z,58
2015-10-01T03:29:28.897Z,59
2015-10-01T03:29:47.304Z,58
2015-10-01T03:30:05.666Z,58
2015-10-01T03:30:24.182Z,58
2015-10-01T03:30:42.619Z,57
2015-10-01T03:31:00.947Z,57
2015-10-01T03:31:19.481Z,56
2015-10-01T03:31:37.841Z,56
2015-10-01T03:31:56.685Z,56
2015-10-01T03:32:15.265Z,56
2015-10-01T03:32:33.624Z,56
2015-10-01T03:32:51.983Z,57
2015-10-01T03:33:10.392Z,56
2015-10-01T03:33:28.751Z,55
2015-10-01T03:33:47.204Z,56
2015-10-01T03:34:05.626Z,56
2015-10-01T03:34:24.081Z,57
2015-10-01T03:34:42.534Z,56
2015-10-01T03:35:00.972Z,54
2015-10-01T03:35:19.333Z,57
2015-10-01T03:35:37.724Z,56
2015-10-01T03:35:56.193Z,56
2015-10-01T03:36:15.258Z,56
2015-10-01T03:36:33.617Z,56
2015-10-01T03:36:52.149Z,55
2015-10-01T03:37:10.605Z,55
2015-10-01T03:37:29.074Z,55
2015-10-01T03:37:47.527Z,57
2015-10-01T03:38:05.917Z,56
2015-10-01T03:38:24.702Z,56
2015-10-01T03:38:43.170Z,56
2015-10-01T03:39:01.905Z,56
2015-10-01T03:39:20.345Z,56
2015-10-01T03:39:38.814Z,53
2015-10-01T03:39:57.142Z,56
2015-10-01T03:40:15.503Z,55
2015-10-01T03:40:34.097Z,56
2015-10-01T03:40:52.816Z,54
2015-10-01T03:41:11.285Z,53
2015-10-01T03:41:29.647Z,54
2015-10-01T03:41:48.131Z,57
2015-10-01T03:42:06.491Z,55
2015-10-01T03:42:25.119Z,56
2015-10-01T03:42:43.697Z,55
2015-10-01T03:43:02.119Z,54
2015-10-01T03:43:21.527Z,55
2015-10-01T03:43:40.152Z,52
2015-10-01T03:43:58.949Z,55
2015-10-01T03:44:17.764Z,55
2015-10-01T03:44:36.499Z,55
2015-10-01T03:44:54.889Z,55
2015-10-01T03:45:13.249Z,55
2015-10-01T03:45:31.908Z,52
2015-10-01T03:45:50.330Z,56
2015-10-01T03:46:08.736Z,55
2015-10-01T03:46:27.286Z,55
2015-10-01T03:46:45.645Z,55
2015-10-01T03:47:04.239Z,54
2015-10-01T03:47:22.867Z,55
2015-10-01T03:47:41.586Z,55
2015-10-01T03:48:00.039Z,55
2015-10-01T03:48:18.416Z,50
2015-10-01T03:48:37.041Z,56
2015-10-01T03:48:55.541Z,55
2015-10-01T03:49:14.291Z,56
2015-10-01T03:49:32.653Z,57
2015-10-01T03:49:51.232Z,56
2015-10-01T03:50:09.732Z,56
2015-10-01T03:50:28.141Z,56
2015-10-01T03:50:46.719Z,56
2015-10-01T03:51:05.172Z,55
2015-10-01T03:51:23.549Z,57
2015-10-01T03:51:42.221Z,56
2015-10-01T03:52:00.924Z,57
2015-10-01T03:52:19.502Z,56
2015-10-01T03:52:38.099Z,56
2015-10-01T03:52:56.615Z,56
2015-10-01T03:53:15.068Z,56
2015-10-01T03:53:33.539Z,56
2015-10-01T03:53:52.071Z,56
2015-10-01T03:54:10.680Z,56
2015-10-01T03:54:29.135Z,53
2015-10-01T03:54:47.557Z,57
2015-10-01T03:55:05.995Z,57
2015-10-01T03:55:24.401Z,57
2015-10-01T03:55:43.076Z,57
2015-10-01T03:56:01.591Z,57
2015-10-01T03:56:20.263Z,58
2015-10-01T03:56:38.626Z,58
2015-10-01T03:56:57.141Z,57
2015-10-01T03:57:15.969Z,58
2015-10-01T03:57:34.722Z,58
2015-10-01T03:57:53.550Z,58
2015-10-01T03:58:11.941Z,57
2015-10-01T03:58:30.316Z,58
2015-10-01T03:58:48.834Z,57
2015-10-01T03:59:07.240Z,57
2015-10-01T03:59:25.802Z,57
2015-10-01T03:59:44.337Z,57
2015-10-01T04:00:02.821Z,57
2015-10-01T04:00:21.337Z,56
2015-10-01T04:00:40.215Z,56
2015-10-01T04:00:58.668Z,56
2015-10-01T04:01:17.308Z,56
2015-10-01T04:01:35.749Z,55
2015-10-01T04:01:54.390Z,57
2015-10-01T04:02:12.780Z,57
2015-10-01T04:02:31.343Z,57
2015-10-01T04:02:49.798Z,57
2015-10-01T04:03:08.235Z,57
2015-10-01T04:03:26.782Z,57
2015-10-01T04:03:45.614Z,57
2015-10-01T04:04:04.380Z,57
2015-10-01T04:04:22.989Z,56
2015-10-01T04:04:41.663Z,56
2015-10-01T04:05:00.366Z,57
2015-10-01T04:05:18.819Z,56
2015-10-01T04:05:37.085Z,56
2015-10-01T04:05:55.588Z,58
2015-10-01T04:06:13.963Z,56
2015-10-01T04:06:32.338Z,56
2015-10-01T04:06:50.887Z,57
2015-10-01T04:07:09.324Z,56
2015-10-01T04:07:27.887Z,56
2015-10-01T04:07:46.452Z,58
2015-10-01T04:08:04.843Z,57
2015-10-01T04:08:23.452Z,57
2015-10-01T04:08:42.062Z,57
2015-10-01T04:09:00.549Z,57
2015-10-01T04:09:19.237Z,57
2015-10-01T04:09:37.627Z,57
2015-10-01T04:09:56.177Z,56
2015-10-01T04:10:14.568Z,57
2015-10-01T04:10:33.037Z,56
2015-10-01T04:10:51.649Z,55
2015-10-01T04:11:10.243Z,56
2015-10-01T04:11:28.696Z,56
2015-10-01T04:11:47.102Z,56
2015-10-01T04:12:05.511Z,57
2015-10-01T04:12:23.902Z,57
2015-10-01T04:12:42.668Z,58
2015-10-01T04:13:01.248Z,57
2015-10-01T04:13:19.607Z,57
2015-10-01T04:13:38.373Z,58
2015-10-01T04:13:56.782Z,58
2015-10-01T04:14:15.188Z,58
2015-10-01T04:14:33.876Z,59
2015-10-01T04:14:52.485Z,58
2015-10-01T04:15:10.863Z,58
2015-10-01T04:15:29.379Z,57
2015-10-01T04:15:47.832Z,58
2015-10-01T04:16:06.194Z,58
2015-10-01T04:16:24.819Z,57
2015-10-01T04:16:43.257Z,57
2015-10-01T04:17:01.681Z,58
2015-10-01T04:17:20.165Z,58
2015-10-01T04:17:38.649Z,58
2015-10-01T04:17:57.118Z,57
2015-10-01T04:18:15.855Z,57
2015-10-01T04:18:35.152Z,57
2015-10-01T04:18:53.715Z,58
2015-10-01T04:19:12.218Z,59
2015-10-01T04:19:30.593Z,58
2015-10-01T04:19:49.249Z,57
2015-10-01T04:20:07.704Z,58
2015-10-01T04:20:26.173Z,55
2015-10-01T04:20:44.704Z,55
2015-10-01T04:21:03.129Z,57
2015-10-01T04:21:21.863Z,58
2015-10-01T04:21:40.395Z,58
2015-10-01T04:21:58.754Z,58
2015-10-01T04:22:17.116Z,59
2015-10-01T04:22:35.741Z,59
2015-10-01T04:22:54.101Z,59
2015-10-01T04:23:12.587Z,59
2015-10-01T04:23:31.197Z,59
2015-10-01T04:23:49.681Z,60